Flight Track Log - Related Links

Times and Time Zones

All times are in EST time to prevent confusion due to time zone crossing. See the AWE1997 flight status page for this flight to view local times or setup timezone preferences in your user account.

Time Position Orientation Groundspeed Altitude Reporting Facility
EST Latitude Longitude Course Direction KTS MPH feet Rate Location/Type
Sat 02:24:00 PM 26.8948 -81.7333 North  Level FlightAware Approximate
Sat 02:24:17 PM 26.5278 -81.9017 347° North 275 316 5,800  Level Miami Center
Sat 02:25:00 PM 27.0172 -81.7336 340° North  Level FlightAware Approximate
Sat 02:25:17 PM 26.6025 -81.9164 350° North 287 330 8,900  Level Miami Center
Sat 02:26:00 PM 27.1331 -81.7777 343° North  Level FlightAware Approximate
Sat 02:26:17 PM 26.6883 -81.9133 North 309 356 10,300  Level Miami Center
Sat 02:27:00 PM 27.2507 -81.8146 339° North  Level FlightAware Approximate
Sat 02:27:17 PM 26.7958 -81.8831 14° North 338 389 12,000  Level Miami Center
Sat 02:28:00 PM 27.3665 -81.8583 347° North  Level FlightAware Approximate
Sat 02:28:17 PM 26.8939 -81.8219 29° Northeast 382 440 14,800  Level Miami Center
Sat 02:29:17 PM 26.9833 -81.7675 28° Northeast 400 460 17,000 1,100 Climbing Miami Center
Sat 02:30:17 PM 27.0919 -81.7697 359° North 378 435 17,000 350 Level Miami Center
Sat 02:31:17 PM 27.1889 -81.8019 344° North 360 414 17,700 1,350 Climbing Miami Center
Sat 02:32:17 PM 27.3003 -81.8369 344° North 370 426 19,700 1,800 Climbing Miami Center
Sat 02:33:17 PM 27.4056 -81.8719 344° North 384 442 21,300 1,500 Climbing Miami Center
Sat 02:34:17 PM 27.5044 -81.9092 342° North 402 463 22,700 1,650 Climbing Miami Center
Sat 02:35:17 PM 27.6303 -81.9544 342° North 420 483 24,600 1,550 Climbing Miami Center
Sat 02:36:17 PM 27.7486 -81.9667 355° North 425 489 25,800 1,400 Climbing Miami Center
Sat 02:37:17 PM 27.8442 -81.8631 44° Northeast 424 488 27,400 1,450 Climbing Miami Center
Sat 02:38:17 PM 27.8917 -81.7525 64° Northeast 429 494 28,700 1,300 Climbing Miami Center
Sat 02:39:17 PM 27.9592 -81.6050 63° Northeast 454 522 30,000 1,150 Climbing Miami Center
Sat 02:40:17 PM 28.0200 -81.4689 63° Northeast 466 536 31,000 1,050 Climbing Miami Center
Sat 02:41:17 PM 28.0958 -81.3142 61° Northeast 497 572 32,100 1,000 Climbing Miami Center
Sat 02:42:17 PM 28.1625 -81.1828 60° Northeast 488 562 33,000 450 Climbing Miami Center
Sat 02:43:17 PM 28.2267 -81.0581 60° Northeast 488 562 33,000  Level Miami Center
Sat 02:44:17 PM 28.2931 -80.9236 61° Northeast 493 567 33,000  Level Miami Center
Sat 02:45:17 PM 28.3633 -80.7989 57° Northeast 487 560 33,000  Level Miami Center
Sat 02:46:17 PM 28.4375 -80.6836 54° Northeast 459 528 33,000  Level Miami Center
Sat 02:47:17 PM 28.5139 -80.5608 55° Northeast 465 535 33,000  Level Miami Center
Sat 02:48:17 PM 28.5925 -80.4217 57° Northeast 465 535 33,000  Level Miami Center
Sat 02:49:17 PM 28.6583 -80.2842 61° Northeast 474 545 33,000  Level Miami Center
Sat 02:50:17 PM 28.7156 -80.1558 63° Northeast 486 559 33,000  Level Miami Center
Sat 02:51:17 PM 28.7833 -80.0158 61° Northeast 492 566 33,000  Level Miami Center
Sat 02:52:17 PM 28.8492 -79.8731 62° Northeast 492 566 33,000  Level Miami Center
Sat 02:53:17 PM 28.9125 -79.7350 62° Northeast 487 560 33,000  Level Miami Center
Sat 02:54:17 PM 28.9778 -79.5989 61° Northeast 487 560 33,000  Level Miami Center
Sat 02:55:17 PM 29.0428 -79.4653 61° Northeast 487 560 33,000  Level Miami Center
Sat 02:56:17 PM 29.1119 -79.3317 59° Northeast 487 560 33,000  Level Miami Center
Sat 02:57:17 PM 29.2297 -79.2842 19° North 436 502 33,000  Level Miami Center
Sat 02:58:17 PM 29.3472 -79.2439 17° North 431 496 33,000  Level Miami Center
Sat 02:59:17 PM 29.4667 -79.2014 17° North 437 503 33,000  Level Miami Center
Sat 03:00:55 PM 29.6686 -79.1378 15° North 459 528 33,000  Level Jacksonville Center
Sat 03:01:55 PM 29.7883 -79.0925 18° North 454 522 33,000  Level Jacksonville Center
Sat 03:02:55 PM 29.9144 -79.0564 14° North 453 521 33,000  Level Jacksonville Center
Sat 03:03:55 PM 30.0361 -79.0058 20° North 453 521 33,000  Level Jacksonville Center
Sat 03:04:55 PM 30.1533 -78.9508 22° Northeast 458 527 33,000  Level Jacksonville Center
Sat 03:05:55 PM 30.2856 -78.9019 18° North 452 520 33,000  Level Jacksonville Center
Sat 03:06:55 PM 30.4092 -78.8536 19° North 448 516 33,000  Level Jacksonville Center
Sat 03:07:55 PM 30.5267 -78.8053 20° North 446 513 33,000  Level Jacksonville Center
Sat 03:08:55 PM 30.6503 -78.7564 19° North 454 522 33,000  Level Jacksonville Center
Sat 03:09:55 PM 30.7697 -78.7078 19° North 447 514 33,000  Level Jacksonville Center
Sat 03:10:54 PM 30.8956 -78.6586 19° North 460 529 33,000  Level Jacksonville Center
Sat 03:11:55 PM 31.0128 -78.6072 21° North 454 522 33,000  Level Jacksonville Center
Sat 03:12:55 PM 31.1239 -78.5633 19° North 454 522 33,000  Level Jacksonville Center
Sat 03:13:55 PM 31.2414 -78.5167 19° North 454 522 33,000  Level Jacksonville Center
Sat 03:14:55 PM 31.3647 -78.4647 20° North 460 529 33,000  Level Jacksonville Center
Sat 03:15:55 PM 31.4842 -78.4153 19° North 460 529 33,000  Level Jacksonville Center
Sat 03:16:55 PM 31.6014 -78.3656 20° North 455 524 33,000  Level Jacksonville Center
Sat 03:17:54 PM 31.7228 -78.3183 18° North 460 529 33,000  Level Jacksonville Center
Sat 03:18:55 PM 31.8581 -78.2503 23° Northeast 467 537 33,000  Level Jacksonville Center
Sat 03:19:55 PM 31.9817 -78.2050 17° North 467 537 33,000  Level Jacksonville Center
Sat 03:20:55 PM 32.1047 -78.1472 22° Northeast 467 537 33,000  Level Jacksonville Center
Sat 03:21:55 PM 32.2303 -78.0989 18° North 467 537 33,000  Level Jacksonville Center
Sat 03:22:54 PM 32.3514 -78.0483 19° North 461 531 33,000  Level Jacksonville Center
Sat 03:23:55 PM 32.4769 -77.9972 19° North 461 531 33,000  Level Jacksonville Center
Sat 03:24:55 PM 32.6000 -77.9464 19° North 461 531 33,000  Level Jacksonville Center
Sat 03:25:55 PM 32.7253 -77.8900 21° North 461 531 33,000  Level Jacksonville Center
Sat 03:26:55 PM 32.8483 -77.8411 18° North 461 531 33,000  Level Jacksonville Center
Sat 03:27:55 PM 32.9733 -77.7847 21° North 466 536 33,000  Level Jacksonville Center
Sat 03:29:37 PM 33.1708 -77.7028 19° North 465 535 33,000  Level Washington Center
Sat 03:30:38 PM 33.2947 -77.6486 20° North 465 535 33,000  Level Washington Center
Sat 03:31:36 PM 33.4208 -77.5969 19° North 471 542 33,000  Level Washington Center
Sat 03:32:37 PM 33.5447 -77.5403 21° North 471 542 33,000  Level Washington Center
Sat 03:33:37 PM 33.6708 -77.4858 20° North 471 542 33,000  Level Washington Center
Sat 03:34:37 PM 33.7894 -77.5008 354° North 448 516 33,000  Level Washington Center
Sat 03:35:38 PM 33.8928 -77.5633 333° Northwest 412 474 33,000  Level Washington Center
Sat 03:36:38 PM 33.9983 -77.6183 337° Northwest 401 461 33,000  Level Washington Center
Sat 03:37:39 PM 34.1236 -77.6039 North 424 488 33,000  Level Washington Center
Sat 03:38:36 PM 34.2567 -77.5092 30° Northeast 440 506 33,000  Level Washington Center
Sat 03:39:37 PM 34.3728 -77.4189 33° Northeast 463 533 33,000  Level Washington Center
Sat 03:40:38 PM 34.4947 -77.3561 23° Northeast 476 548 33,000  Level Washington Center
Sat 03:41:36 PM 34.6228 -77.3083 17° North 476 548 33,000  Level Washington Center
Sat 03:42:37 PM 34.7467 -77.2478 22° Northeast 476 548 33,000  Level Washington Center
Sat 03:43:37 PM 34.8581 -77.1842 25° Northeast 476 548 33,000  Level Washington Center
Sat 03:44:38 PM 34.9989 -77.1133 22° Northeast 484 557 33,000  Level Washington Center
Sat 03:45:36 PM 35.1122 -77.0519 24° Northeast 484 557 33,000  Level Washington Center
Sat 03:46:37 PM 35.2383 -76.9883 22° Northeast 484 557 33,000  Level Washington Center
Sat 03:47:38 PM 35.3661 -76.9217 23° Northeast 484 557 33,000  Level Washington Center
Sat 03:48:36 PM 35.4922 -76.8575 23° Northeast 484 557 33,000  Level Washington Center
Sat 03:49:37 PM 35.6181 -76.7878 24° Northeast 484 557 33,000  Level Washington Center
Sat 03:50:37 PM 35.7417 -76.7231 23° Northeast 484 557 33,000  Level Washington Center
Sat 03:51:38 PM 35.8697 -76.6583 22° Northeast 484 557 33,000  Level Washington Center
Sat 03:52:36 PM 35.9933 -76.5906 24° Northeast 484 557 33,000  Level Washington Center
Sat 03:53:37 PM 36.1211 -76.5253 22° Northeast 484 557 33,000  Level Washington Center
Sat 03:54:38 PM 36.2447 -76.4600 23° Northeast 477 549 33,000  Level Washington Center
Sat 03:55:36 PM 36.3683 -76.3942 23° Northeast 477 549 33,000  Level Washington Center
Sat 03:56:37 PM 36.4939 -76.3283 23° Northeast 477 549 33,000 -248 Level Washington Center
Sat 03:57:37 PM 36.6153 -76.2622 24° Northeast 477 549 32,500 -793 Descending Washington Center
Sat 03:58:38 PM 36.7511 -76.1856 24° Northeast 477 549 31,400 -1,033 Descending Washington Center
Sat 03:59:39 PM 36.8706 -76.1189 24° Northeast 477 549 30,400 -958 Descending Washington Center
Sat 04:00:37 PM 37.0022 -76.0547 21° North 477 549 29,500 -712 Descending Washington Center
Sat 04:01:37 PM 37.1275 -75.9825 25° Northeast 490 564 29,000 -250 Descending Washington Center
Sat 04:02:37 PM 37.2572 -75.9128 23° Northeast 490 564 29,000 -545 Level Washington Center
Sat 04:03:38 PM 37.3825 -75.8428 24° Northeast 496 571 27,900 -1,289 Descending Washington Center
Sat 04:04:38 PM 37.5078 -75.7778 22° Northeast 496 571 26,400 -1,462 Descending Washington Center
Sat 04:05:37 PM 37.6289 -75.7097 24° Northeast 491 565 25,000 -700 Descending Washington Center
Sat 04:06:38 PM 37.7456 -75.6417 25° Northeast 474 545 25,000  Level Washington Center
Sat 04:07:38 PM 37.8644 -75.5761 24° Northeast 461 531 25,000  Level Washington Center
Sat 04:08:39 PM 37.9811 -75.5100 24° Northeast 461 531 25,000 -407 Level Washington Center
Sat 04:09:36 PM 38.0958 -75.4439 24° Northeast 456 525 24,200 -1,487 Descending Washington Center
Sat 04:10:36 PM 38.2083 -75.3697 27° Northeast 456 525 22,100 -2,033 Descending Washington Center
Sat 04:11:37 PM 38.3186 -75.2981 27° Northeast 451 519 20,100 -1,983 Descending Washington Center
Sat 04:12:37 PM 38.4250 -75.2339 25° Northeast 431 496 18,100 -1,785 Descending Washington Center
Sat 04:13:38 PM 38.5247 -75.1672 28° Northeast 418 481 16,500 -1,438 Descending Washington Center
Sat 04:14:38 PM 38.6183 -75.1108 25° Northeast 384 442 15,200 -763 Descending Washington Center
Sat 04:15:36 PM 38.7119 -75.0517 26° Northeast 372 428 15,000 -102 Descending Washington Center
Sat 04:16:36 PM 38.8033 -75.0003 24° Northeast 366 421 15,000 -298 Level Washington Center
Sat 04:17:37 PM 38.8969 -74.9436 25° Northeast 361 415 14,400 -689 Descending Washington Center
Sat 04:18:38 PM 38.9861 -74.8867 26° Northeast 361 415 13,600 -958 Descending Washington Center
Sat 04:19:36 PM 39.0756 -74.8269 27° Northeast 361 415 12,500 -1,311 Descending Washington Center
Sat 04:20:37 PM 39.1606 -74.7778 24° Northeast 356 410 11,000 -744 Descending Washington Center
Sat 04:21:37 PM 39.2436 -74.7233 27° Northeast 341 392 11,000  Level Washington Center
Sat 04:22:39 PM 39.3286 -74.6714 25° Northeast 336 387 11,000 -555 Level Washington Center
Sat 04:23:36 PM 39.4097 -74.6353 19° North 330 380 9,900 -698 Descending Washington Center
Sat 04:25:31 PM 39.4833 -74.7667 306° West 212 244 9,000 -309 Descending Philadelphia TRACON
Sat 04:26:31 PM 39.5000 -74.8333 288° West 223 257 9,000  Level Philadelphia TRACON
Sat 04:27:31 PM 39.5000 -74.9167 270° West 222 255 9,000 -500 Level Philadelphia TRACON
Sat 04:28:31 PM 39.4833 -75.0000 255° West 227 261 8,000 -950 Descending Philadelphia TRACON
Sat 04:29:31 PM 39.5333 -75.0333 333° Northwest 258 297 7,100 -500 Descending Philadelphia TRACON
Sat 04:30:31 PM 39.6000 -75.0500 349° North 239 275 7,000 -50 Descending Philadelphia TRACON
Sat 04:31:31 PM 39.6667 -75.0667 349° North 253 291 7,000 -500 Level Philadelphia TRACON
Sat 04:32:31 PM 39.7333 -75.0333 21° North 284 327 6,000 -500 Descending Philadelphia TRACON
Sat 04:33:31 PM 39.8000 -74.9833 30° Northeast 221 254 6,000 -650 Level Philadelphia TRACON
Sat 04:34:31 PM 39.8500 -74.9833 360° North 179 206 4,700 -1,400 Descending Philadelphia TRACON
Sat 04:35:31 PM 39.8667 -75.0333 293° West 150 173 3,200 -1,350 Descending Philadelphia TRACON
Sat 04:36:31 PM 39.8833 -75.0833 293° West 159 183 2,000 -950 Descending Philadelphia TRACON
Sat 04:37:31 PM 39.9000 -75.1333 293° West 154 177 1,300 -700 Descending Philadelphia TRACON
Sat 04:38:31 PM 39.8833 -75.1833 247° West 128 147 600 -700 Descending Philadelphia TRACON
Sat 04:40:00 PM 39.8667 -75.2333 281° West  Level FlightAware Approximate
Sat 04:47:00 PM 39.8722 -75.2409 281° West  Level Estimated
Sat 04:48:00 PM 39.8722 -75.2409 281° West  Level Estimated

Login

Don't have an account? Register now (free) for customized features, flight alerts, and more!